Time;durP1;ratioP1;P1;durP2;ratioP2;P2;SDS_P1;SDS_P2;PMS_P1;PMS_P2;Temp;Humidity;BMP_temperature;BMP_pressure;BME280_temperature;BME280_humidity;BME280_pressure;Samples;Min_cycle;Max_cycle;Signal;HPM_P1;HPM_P2
2021/12/05 00:20:57;;;;;;;23.83;15.40;;;2.70;99.90;;;;;;5044961;28;20227;-73
2021/12/05 00:23:28;;;;;;;26.67;15.98;;;2.70;99.90;;;;;;5065195;28;20227;-73
2021/12/05 00:25:58;;;;;;;23.23;16.05;;;2.80;99.90;;;;;;5064703;28;20199;-73
2021/12/05 00:34:17;;;;;;;22.75;15.98;;;2.70;99.90;;;;;;5056734;28;20214;-72
2021/12/05 00:48:15;;;;;;;28.55;19.38;;;2.80;99.90;;;;;;5068380;28;20198;-74
2021/12/05 00:56:21;;;;;;;26.80;18.70;;;2.80;99.90;;;;;;5046858;28;20329;-74
2021/12/05 01:04:33;;;;;;;30.10;18.80;;;2.90;99.90;;;;;;5063033;28;20249;-73
2021/12/05 01:07:15;;;;;;;26.73;18.52;;;2.90;99.90;;;;;;5065157;28;20199;-74
2021/12/05 01:09:47;;;;;;;27.52;17.25;;;2.90;99.90;;;;;;5054571;28;20187;-73
2021/12/05 01:12:31;;;;;;;25.80;17.17;;;3.00;99.90;;;;;;5065276;28;20620;-74
2021/12/05 01:15:05;;;;;;;23.80;15.82;;;3.00;99.90;;;;;;5069956;28;20279;-73
2021/12/05 01:17:39;;;;;;;21.27;14.07;;;3.20;99.90;;;;;;5061088;28;20568;-73
2021/12/05 01:20:14;;;;;;;23.92;15.73;;;3.20;99.90;;;;;;5063386;28;20273;-74
2021/12/05 01:22:46;;;;;;;22.50;15.60;;;3.20;99.90;;;;;;5057892;28;20661;-74
2021/12/05 01:25:34;;;;;;;23.33;15.40;;;3.20;99.90;;;;;;5058591;28;20209;-75
2021/12/05 01:28:07;;;;;;;25.48;15.95;;;3.20;99.90;;;;;;5064314;28;20234;-72
2021/12/05 01:30:42;;;;;;;25.67;16.77;;;3.20;99.90;;;;;;5069951;28;20199;-73
2021/12/05 01:33:15;;;;;;;24.30;17.23;;;3.20;99.90;;;;;;5066866;28;20507;-74
2021/12/05 01:36:01;;;;;;;26.15;16.80;;;3.20;99.90;;;;;;5056814;28;20267;-72
2021/12/05 01:38:45;;;;;;;31.00;19.90;;;3.30;99.90;;;;;;5065830;28;20253;-72
2021/12/05 01:52:40;;;;;;;30.98;19.85;;;3.20;99.90;;;;;;5054966;28;20218;-74
2021/12/05 02:09:11;;;;;;;32.70;19.10;;;3.30;99.90;;;;;;5067682;28;20198;-74
2021/12/05 02:11:53;;;;;;;24.80;17.10;;;3.20;99.90;;;;;;5067921;28;20199;-72
2021/12/05 02:31:10;;;;;;;24.42;18.63;;;3.20;99.90;;;;;;5061795;28;20239;-73
2021/12/05 02:34:06;;;;;;;22.95;15.88;;;3.30;99.90;;;;;;5067503;28;20223;-73
2021/12/05 02:39:40;;;;;;;24.65;15.93;;;3.50;99.90;;;;;;5059877;28;20233;-73
2021/12/05 02:42:13;;;;;;;24.70;15.43;;;3.50;99.90;;;;;;5064994;28;20276;-72
2021/12/05 02:44:40;;;;;;;26.52;17.23;;;3.60;99.90;;;;;;5065324;28;20198;-72
2021/12/05 02:47:12;;;;;;;30.45;17.20;;;3.50;99.90;;;;;;5062635;28;20213;-73
2021/12/05 02:49:41;;;;;;;24.75;17.83;;;3.40;99.90;;;;;;5067800;28;20289;-72
2021/12/05 02:52:11;;;;;;;27.45;17.40;;;3.50;99.90;;;;;;5067581;28;20272;-72
2021/12/05 02:54:45;;;;;;;24.90;16.65;;;3.50;99.90;;;;;;5065075;28;20282;-72
2021/12/05 02:57:12;;;;;;;27.65;18.30;;;3.40;99.90;;;;;;5065622;28;20203;-72
2021/12/05 02:59:47;;;;;;;25.20;16.75;;;3.40;99.90;;;;;;5056778;28;20207;-72
2021/12/05 03:02:17;;;;;;;29.30;18.83;;;3.40;99.90;;;;;;5063308;28;20770;-73
2021/12/05 03:04:47;;;;;;;33.72;19.85;;;3.40;99.90;;;;;;5055332;28;20210;-72
2021/12/05 03:07:18;;;;;;;31.45;18.13;;;3.40;99.90;;;;;;5065413;28;20214;-73
2021/12/05 03:09:47;;;;;;;25.23;18.27;;;3.50;99.90;;;;;;5068010;28;20205;-73
2021/12/05 03:12:18;;;;;;;29.90;18.17;;;3.50;99.90;;;;;;5056357;28;20598;-73
2021/12/05 03:14:49;;;;;;;25.65;17.27;;;3.60;99.90;;;;;;5069505;28;20649;-72
2021/12/05 03:17:17;;;;;;;28.80;18.35;;;3.50;99.90;;;;;;5068152;28;20632;-73
2021/12/05 03:19:44;;;;;;;23.38;16.50;;;3.50;99.90;;;;;;5065054;28;20317;-73
2021/12/05 03:22:11;;;;;;;29.92;17.52;;;3.60;99.90;;;;;;5064331;28;20230;-72
2021/12/05 03:24:38;;;;;;;29.35;18.15;;;3.70;99.90;;;;;;5052797;28;20200;-73
2021/12/05 03:27:07;;;;;;;24.88;17.25;;;3.70;99.90;;;;;;5053574;28;20252;-72
2021/12/05 03:29:33;;;;;;;29.77;17.83;;;3.80;99.90;;;;;;5069818;28;20208;-72
2021/12/05 03:32:00;;;;;;;30.63;20.00;;;3.70;99.90;;;;;;5061875;28;20253;-73
2021/12/05 03:34:28;;;;;;;32.78;21.25;;;3.70;99.90;;;;;;5062829;28;20203;-73
2021/12/05 03:36:58;;;;;;;36.88;19.80;;;3.70;99.90;;;;;;5062149;28;20227;-73
2021/12/05 03:39:25;;;;;;;29.80;19.50;;;3.80;99.90;;;;;;5067420;28;20230;-73
2021/12/05 03:41:53;;;;;;;29.52;18.02;;;3.70;99.90;;;;;;5056510;28;20648;-73
2021/12/05 03:44:24;;;;;;;31.50;19.95;;;3.60;99.90;;;;;;5061949;28;20225;-73
2021/12/05 03:46:54;;;;;;;31.85;20.60;;;3.50;99.90;;;;;;5044354;28;20260;-72
2021/12/05 03:49:22;;;;;;;28.40;19.95;;;3.40;99.90;;;;;;5048224;28;20204;-73
2021/12/05 03:51:52;;;;;;;33.83;19.25;;;3.50;99.90;;;;;;5045753;28;20238;-73
2021/12/05 03:54:19;;;;;;;27.35;18.77;;;3.60;99.90;;;;;;5051794;28;20684;-73
2021/12/05 03:56:48;;;;;;;36.08;21.80;;;3.70;99.90;;;;;;5052659;28;20203;-73
2021/12/05 03:59:16;;;;;;;33.72;20.92;;;3.60;99.90;;;;;;5051861;28;20212;-72
2021/12/05 04:01:47;;;;;;;35.35;22.40;;;3.60;99.90;;;;;;5051431;28;20282;-73
2021/12/05 04:04:17;;;;;;;42.30;23.75;;;3.80;99.90;;;;;;5052035;28;20600;-72
2021/12/05 04:06:44;;;;;;;35.88;22.85;;;3.80;99.90;;;;;;5044465;28;20191;-71
2021/12/05 04:09:12;;;;;;;40.35;23.80;;;3.80;99.90;;;;;;5051145;28;21443;-72
2021/12/05 04:11:46;;;;;;;31.85;19.08;;;3.80;99.90;;;;;;5055216;28;20207;-71
2021/12/05 04:14:15;;;;;;;31.42;20.70;;;3.70;99.90;;;;;;5051524;28;20271;-70
2021/12/05 04:16:43;;;;;;;34.05;20.88;;;3.70;99.90;;;;;;5051808;28;20291;-71
2021/12/05 04:19:12;;;;;;;38.55;21.75;;;3.70;99.90;;;;;;5051099;28;20239;-72
2021/12/05 04:21:39;;;;;;;40.75;22.02;;;3.60;99.90;;;;;;5051161;28;20222;-72
2021/12/05 04:24:09;;;;;;;36.67;21.02;;;3.60;99.90;;;;;;5053029;28;20286;-72
2021/12/05 04:26:37;;;;;;;35.47;21.38;;;3.60;99.90;;;;;;5051579;28;20283;-73
2021/12/05 04:29:06;;;;;;;35.60;21.33;;;3.60;99.90;;;;;;5052256;28;20289;-72
2021/12/05 04:31:34;;;;;;;47.42;24.38;;;3.60;99.90;;;;;;5050377;28;20546;-72
2021/12/05 04:34:01;;;;;;;37.33;23.60;;;3.70;99.90;;;;;;5051989;28;20204;-72
2021/12/05 04:36:30;;;;;;;36.65;24.00;;;3.70;99.90;;;;;;5049988;28;20203;-71
2021/12/05 04:38:57;;;;;;;38.55;21.80;;;3.90;99.90;;;;;;5052463;28;20563;-73
2021/12/05 04:41:24;;;;;;;39.15;23.60;;;3.80;99.90;;;;;;5050186;28;20226;-71
2021/12/05 04:43:52;;;;;;;36.20;22.05;;;3.80;99.90;;;;;;5050961;28;20225;-73
2021/12/05 04:46:22;;;;;;;43.42;23.73;;;3.80;99.90;;;;;;5052179;28;20203;-71
2021/12/05 04:48:51;;;;;;;44.42;23.35;;;3.90;99.90;;;;;;5048286;28;20203;-72
2021/12/05 04:51:19;;;;;;;36.78;21.70;;;3.80;99.90;;;;;;5044407;28;20207;-72
2021/12/05 04:53:48;;;;;;;30.15;19.38;;;3.90;99.90;;;;;;5054225;28;20564;-72
2021/12/05 04:56:16;;;;;;;39.03;22.40;;;3.90;99.90;;;;;;5058645;28;20227;-73
2021/12/05 04:58:44;;;;;;;45.00;22.92;;;4.00;99.90;;;;;;5055145;28;20203;-72
2021/12/05 05:01:11;;;;;;;34.10;23.42;;;4.00;99.90;;;;;;5054539;28;20273;-73
2021/12/05 05:03:38;;;;;;;31.40;19.50;;;4.00;99.90;;;;;;5053377;28;20539;-73
2021/12/05 05:06:10;;;;;;;37.95;24.35;;;4.10;99.90;;;;;;5054246;28;20259;-72
2021/12/05 05:08:37;;;;;;;36.20;21.33;;;4.10;99.90;;;;;;5053963;28;20207;-72
2021/12/05 05:11:09;;;;;;;35.55;22.17;;;4.00;99.90;;;;;;5053445;28;20192;-73
2021/12/05 05:13:36;;;;;;;37.90;22.10;;;4.00;99.90;;;;;;5054153;28;20225;-73
2021/12/05 05:16:04;;;;;;;35.95;21.45;;;4.00;99.90;;;;;;5061072;28;20282;-72
2021/12/05 05:18:40;;;;;;;40.15;22.85;;;4.00;99.90;;;;;;5053692;28;20206;-73
2021/12/05 05:21:12;;;;;;;39.35;22.15;;;4.00;99.90;;;;;;5052739;28;20254;-73
2021/12/05 05:26:49;;;;;;;34.45;21.08;;;4.10;99.90;;;;;;5053630;28;20638;-73
2021/12/05 05:41:06;;;;;;;33.70;20.73;;;4.10;99.90;;;;;;5032967;28;20713;-72
2021/12/05 05:43:52;;;;;;;33.75;19.83;;;4.10;99.90;;;;;;5045501;28;20723;-71
2021/12/05 05:46:21;;;;;;;36.70;22.88;;;4.10;99.90;;;;;;5050400;28;20204;-72
2021/12/05 05:48:56;;;;;;;37.78;23.00;;;4.10;99.90;;;;;;5047943;28;20206;-71
2021/12/05 05:51:23;;;;;;;42.70;25.38;;;4.10;99.90;;;;;;5051720;28;20217;-71
2021/12/05 05:53:50;;;;;;;44.53;24.23;;;4.10;99.90;;;;;;5053118;28;20234;-71
2021/12/05 05:56:20;;;;;;;39.45;24.48;;;4.10;99.90;;;;;;5054489;28;20290;-71
2021/12/05 05:58:52;;;;;;;36.05;24.10;;;4.20;99.90;;;;;;5053461;28;20196;-73
2021/12/05 06:01:22;;;;;;;34.85;22.55;;;4.20;99.90;;;;;;5047104;28;20292;-73
2021/12/05 06:03:49;;;;;;;37.60;22.67;;;4.30;99.90;;;;;;5054622;28;20242;-72
2021/12/05 06:06:18;;;;;;;31.85;21.42;;;4.30;99.90;;;;;;5058898;28;20198;-73
2021/12/05 06:08:46;;;;;;;33.70;21.63;;;4.30;99.90;;;;;;5048723;28;20274;-71
2021/12/05 06:11:17;;;;;;;31.05;17.88;;;4.20;99.90;;;;;;5050539;28;20203;-72
2021/12/05 06:13:45;;;;;;;24.15;17.00;;;4.20;99.90;;;;;;5042479;28;20223;-72
2021/12/05 06:16:15;;;;;;;24.17;16.00;;;4.20;99.90;;;;;;5046618;28;20206;-72
2021/12/05 06:18:42;;;;;;;21.65;14.27;;;4.10;99.90;;;;;;5051090;28;20282;-71
2021/12/05 06:21:10;;;;;;;20.00;12.23;;;4.10;99.90;;;;;;5047494;28;20300;-71
2021/12/05 06:23:38;;;;;;;16.60;12.07;;;4.10;99.90;;;;;;5052800;28;20247;-71
2021/12/05 06:26:07;;;;;;;19.30;12.13;;;4.20;99.90;;;;;;5051055;28;20286;-72
2021/12/05 06:28:37;;;;;;;17.75;10.77;;;4.20;99.90;;;;;;5045402;28;20218;-73
2021/12/05 06:31:18;;;;;;;14.45;10.20;;;4.20;99.90;;;;;;5046895;28;20238;-72
2021/12/05 06:39:23;;;;;;;14.25;9.32;;;4.40;99.90;;;;;;5045181;28;20223;-74
2021/12/05 06:42:03;;;;;;;12.75;8.75;;;4.40;99.90;;;;;;5038890;28;20313;-71
2021/12/05 06:47:16;;;;;;;12.15;9.43;;;4.60;99.90;;;;;;5046795;28;20677;-72
2021/12/05 06:49:45;;;;;;;15.18;8.65;;;4.60;99.90;;;;;;5050860;28;20200;-71
2021/12/05 06:52:12;;;;;;;18.08;10.73;;;4.50;99.90;;;;;;5041029;28;20228;-72
2021/12/05 06:54:40;;;;;;;21.20;10.75;;;4.50;99.90;;;;;;5054745;28;20200;-71
2021/12/05 06:57:08;;;;;;;16.13;10.38;;;4.60;99.90;;;;;;5053472;28;20207;-71
2021/12/05 06:59:37;;;;;;;15.20;10.75;;;4.50;99.90;;;;;;5047093;28;20227;-71
2021/12/05 07:02:05;;;;;;;21.27;9.25;;;4.50;99.90;;;;;;5050150;28;20276;-72
2021/12/05 07:04:51;;;;;;;12.40;11.13;;;4.40;99.90;;;;;;5051807;28;20559;-72
2021/12/05 07:07:22;;;;;;;17.48;11.55;;;4.50;99.90;;;;;;5048604;28;20214;-73
2021/12/05 07:09:50;;;;;;;12.48;10.10;;;4.50;99.90;;;;;;5046105;28;20230;-73
2021/12/05 07:15:06;;;;;;;18.45;11.45;;;4.50;99.90;;;;;;5046063;28;20571;-74
2021/12/05 07:20:12;;;;;;;18.23;11.60;;;4.50;99.90;;;;;;5050096;28;20199;-74
2021/12/05 07:22:51;;;;;;;22.83;12.60;;;4.40;99.90;;;;;;5041974;28;20457;-74
2021/12/05 07:25:29;;;;;;;21.20;13.73;;;4.50;99.90;;;;;;5056301;28;20206;-74
2021/12/05 07:41:49;;;;;;;16.60;11.50;;;4.40;99.90;;;;;;5044046;28;20252;-73
2021/12/05 07:44:16;;;;;;;20.70;12.70;;;4.40;99.90;;;;;;5047019;28;20206;-74
2021/12/05 07:46:47;;;;;;;17.08;11.57;;;4.40;99.90;;;;;;5045764;28;20200;-74
2021/12/05 07:49:15;;;;;;;18.98;13.88;;;4.40;99.90;;;;;;5047836;28;20203;-75
2021/12/05 07:51:46;;;;;;;18.60;14.15;;;4.40;99.90;;;;;;5051558;28;20207;-72
2021/12/05 07:54:28;;;;;;;16.60;11.48;;;4.50;99.90;;;;;;5059454;28;20203;-77
2021/12/05 07:57:06;;;;;;;22.05;12.98;;;4.60;99.90;;;;;;5056590;28;20199;-74
2021/12/05 07:59:46;;;;;;;18.08;12.88;;;4.60;99.90;;;;;;5059134;28;20295;-72
2021/12/05 08:16:02;;;;;;;22.75;13.95;;;4.80;99.90;;;;;;5056301;28;20329;-75
2021/12/05 08:18:31;;;;;;;22.55;14.98;;;4.70;99.90;;;;;;5056675;28;20226;-72
2021/12/05 08:21:00;;;;;;;21.25;15.50;;;4.70;99.90;;;;;;5056655;28;20229;-75
2021/12/05 08:23:28;;;;;;;22.10;14.73;;;4.70;99.90;;;;;;5059904;28;20676;-77
2021/12/05 08:26:04;;;;;;;22.13;14.35;;;4.60;99.90;;;;;;5054352;28;20206;-78
2021/12/05 08:28:49;;;;;;;22.25;13.65;;;4.60;99.90;;;;;;5057204;28;20199;-74
2021/12/05 08:31:26;;;;;;;22.88;13.38;;;4.70;99.90;;;;;;5047835;28;20203;-77
2021/12/05 08:34:04;;;;;;;27.10;14.98;;;4.70;99.90;;;;;;5054741;28;20234;-77
2021/12/05 08:37:10;;;;;;;21.95;14.95;;;4.90;99.90;;;;;;5045248;28;20592;-79
2021/12/05 08:45:42;;;;;;;24.40;15.85;;;4.90;99.90;;;;;;5056918;28;20210;-78
2021/12/05 09:21:46;;;;;;;18.65;13.00;;;6.70;99.90;;;;;;5051402;28;20352;-76
2021/12/05 09:52:54;;;;;;;22.77;14.80;;;6.00;99.90;;;;;;5053368;28;20733;-75
2021/12/05 10:09:05;;;;;;;23.27;15.60;;;5.90;99.90;;;;;;5051518;28;20211;-74
2021/12/05 10:11:41;;;;;;;22.63;14.98;;;5.90;99.90;;;;;;5046117;28;20565;-74
2021/12/05 11:13:26;;;;;;;30.77;20.77;;;6.40;99.90;;;;;;5021558;28;20234;-77
2021/12/05 11:15:56;;;;;;;24.23;19.70;;;6.40;99.90;;;;;;5030056;28;20213;-79
2021/12/05 11:18:44;;;;;;;26.17;20.40;;;6.50;99.90;;;;;;5028351;28;20734;-77
2021/12/05 11:21:31;;;;;;;34.38;21.83;;;6.40;99.90;;;;;;5027928;28;20230;-77
2021/12/05 11:24:15;;;;;;;37.33;23.33;;;6.30;99.90;;;;;;5029031;28;20245;-77
2021/12/05 11:26:44;;;;;;;34.22;21.83;;;6.30;99.90;;;;;;5020466;28;20657;-77
2021/12/05 11:29:13;;;;;;;34.33;22.15;;;6.30;99.90;;;;;;5027364;28;20205;-77
2021/12/05 11:31:42;;;;;;;34.75;22.27;;;6.30;99.90;;;;;;5032923;28;20673;-76
2021/12/05 11:34:09;;;;;;;29.05;18.67;;;6.30;99.90;;;;;;5041494;28;20205;-77
2021/12/05 11:36:38;;;;;;;34.20;23.83;;;6.40;99.90;;;;;;5035594;28;20209;-76
2021/12/05 11:39:22;;;;;;;34.38;25.08;;;6.40;99.90;;;;;;5030892;28;20210;-79
2021/12/05 11:41:50;;;;;;;36.88;24.52;;;6.30;99.90;;;;;;5037838;28;20222;-77
2021/12/05 11:44:22;;;;;;;37.70;27.38;;;6.30;99.90;;;;;;5046187;28;20236;-75
2021/12/05 11:46:49;;;;;;;38.55;23.80;;;6.30;99.90;;;;;;5041461;28;20197;-77
2021/12/05 11:49:20;;;;;;;35.72;22.33;;;6.40;99.90;;;;;;5039202;28;20323;-77
2021/12/05 11:51:49;;;;;;;36.10;22.50;;;6.40;99.90;;;;;;5047233;28;20558;-75
2021/12/05 11:54:20;;;;;;;39.55;24.58;;;6.50;99.90;;;;;;5033974;28;20302;-75
2021/12/05 11:56:52;;;;;;;32.90;21.92;;;6.50;99.90;;;;;;5042768;28;20258;-77
2021/12/05 11:59:24;;;;;;;30.83;20.38;;;6.70;99.90;;;;;;5055075;28;20335;-76
2021/12/05 12:01:57;;;;;;;30.55;21.75;;;6.70;99.90;;;;;;5042241;28;20584;-76
2021/12/05 12:04:27;;;;;;;36.75;21.38;;;6.80;99.90;;;;;;5033318;28;20203;-78
2021/12/05 12:07:14;;;;;;;29.95;21.13;;;6.90;99.90;;;;;;5041460;28;20287;-75
2021/12/05 12:09:41;;;;;;;28.02;20.02;;;6.90;99.90;;;;;;5031819;28;20225;-78
2021/12/05 12:12:09;;;;;;;26.98;20.42;;;6.70;99.90;;;;;;5038860;28;20258;-77
2021/12/05 12:14:38;;;;;;;30.40;22.50;;;6.80;99.90;;;;;;5030448;28;20286;-78
2021/12/05 12:17:10;;;;;;;31.02;20.20;;;6.80;99.90;;;;;;5028830;28;20277;-78
2021/12/05 12:19:37;;;;;;;30.70;20.65;;;6.80;99.90;;;;;;5039708;28;20238;-79
2021/12/05 12:22:05;;;;;;;29.35;20.60;;;6.80;99.90;;;;;;5036293;28;20298;-78
2021/12/05 12:24:33;;;;;;;32.95;19.17;;;6.80;99.90;;;;;;5029206;28;20206;-79
2021/12/05 12:27:00;;;;;;;27.60;19.58;;;6.70;99.90;;;;;;5029796;28;20209;-80
2021/12/05 12:29:28;;;;;;;31.75;20.92;;;6.80;99.90;;;;;;5034937;28;20207;-77
2021/12/05 12:32:03;;;;;;;32.75;22.35;;;6.80;99.90;;;;;;5043264;28;20203;-78
2021/12/05 12:34:30;;;;;;;32.78;20.77;;;6.70;99.90;;;;;;5039015;28;20293;-80
2021/12/05 12:37:01;;;;;;;27.63;20.02;;;6.80;99.90;;;;;;5030729;28;20270;-80
2021/12/05 12:39:32;;;;;;;30.52;21.77;;;7.00;99.90;;;;;;5036811;28;20214;-80
2021/12/05 12:42:05;;;;;;;31.60;22.15;;;7.00;99.90;;;;;;5033185;28;20215;-75
2021/12/05 12:44:33;;;;;;;36.20;21.50;;;6.90;99.90;;;;;;5041948;28;20758;-78
2021/12/05 12:47:03;;;;;;;27.83;21.15;;;6.90;99.90;;;;;;5040477;28;20238;-77
2021/12/05 12:49:33;;;;;;;31.75;20.52;;;7.00;99.90;;;;;;5029846;28;20203;-77
2021/12/05 12:52:03;;;;;;;31.80;20.35;;;7.10;99.90;;;;;;5029613;28;20211;-78
2021/12/05 12:54:33;;;;;;;25.23;18.65;;;7.10;99.90;;;;;;5037524;28;20199;-79
2021/12/05 12:57:09;;;;;;;25.60;19.27;;;7.10;99.90;;;;;;5032181;28;20207;-79
2021/12/05 12:59:39;;;;;;;24.15;17.25;;;7.10;99.90;;;;;;5034699;28;20203;-78
2021/12/05 13:02:36;;;;;;;26.77;17.50;;;6.90;99.90;;;;;;5040558;28;20257;-79
2021/12/05 13:05:20;;;;;;;21.23;17.77;;;6.70;99.90;;;;;;5040740;28;20206;-78
2021/12/05 13:10:37;;;;;;;25.80;16.45;;;6.40;99.90;;;;;;5037708;28;20260;-78
2021/12/05 13:13:09;;;;;;;25.08;18.65;;;6.30;99.90;;;;;;5043746;28;20241;-79
2021/12/05 13:15:44;;;;;;;27.27;18.27;;;6.20;99.90;;;;;;5043543;28;20284;-79
2021/12/05 13:18:26;;;;;;;26.15;18.65;;;6.00;99.90;;;;;;5033256;28;20288;-79
2021/12/05 13:20:58;;;;;;;22.15;16.50;;;6.00;99.90;;;;;;5028270;28;20236;-78
2021/12/05 13:23:32;;;;;;;23.95;17.90;;;6.00;99.90;;;;;;5032944;28;20197;-78
2021/12/05 13:26:19;;;;;;;25.92;20.70;;;6.00;99.90;;;;;;5039969;28;20233;-79
2021/12/05 13:28:49;;;;;;;29.08;21.45;;;5.90;99.90;;;;;;5034704;28;20240;-80
2021/12/05 13:31:35;;;;;;;38.88;21.38;;;5.90;99.90;;;;;;5035826;28;20267;-79
2021/12/05 13:34:35;;;;;;;30.75;21.25;;;5.80;99.90;;;;;;5022804;28;20208;-79
2021/12/05 13:37:36;;;;;;;34.08;20.52;;;5.80;99.90;;;;;;5037132;28;20287;-78
2021/12/05 13:40:16;;;;;;;30.98;21.98;;;5.70;99.90;;;;;;5019400;28;20312;-77
2021/12/05 13:42:47;;;;;;;30.30;20.08;;;5.70;99.90;;;;;;5035640;28;20211;-79
2021/12/05 13:45:18;;;;;;;28.45;18.73;;;5.50;99.90;;;;;;5039321;28;20292;-78
2021/12/05 13:48:07;;;;;;;25.48;19.73;;;5.60;99.90;;;;;;5032203;28;20242;-79
2021/12/05 13:50:42;;;;;;;29.40;19.83;;;5.60;99.90;;;;;;5044285;28;20330;-78
2021/12/05 13:53:34;;;;;;;31.10;20.02;;;5.50;99.90;;;;;;5035085;28;20192;-77
2021/12/05 13:56:24;;;;;;;29.42;19.73;;;5.50;99.90;;;;;;5020833;28;20215;-76
2021/12/05 13:58:54;;;;;;;34.47;20.50;;;5.50;99.90;;;;;;5051513;28;20201;-77
2021/12/05 14:01:28;;;;;;;28.10;17.95;;;5.50;99.90;;;;;;5051931;28;20227;-77
2021/12/05 14:04:09;;;;;;;26.65;18.52;;;5.50;99.90;;;;;;5024094;28;20204;-77
2021/12/05 14:07:01;;;;;;;31.77;21.38;;;5.40;99.90;;;;;;5054274;28;20204;-79
2021/12/05 14:09:31;;;;;;;29.88;21.02;;;5.50;99.90;;;;;;5040400;28;20232;-79
2021/12/05 14:12:02;;;;;;;24.38;17.33;;;5.40;99.90;;;;;;5046094;28;20289;-78
2021/12/05 14:14:34;;;;;;;24.55;19.65;;;5.50;99.90;;;;;;5046845;28;20670;-78
2021/12/05 14:17:04;;;;;;;31.02;20.20;;;5.50;99.90;;;;;;5032599;28;20250;-78
2021/12/05 14:19:34;;;;;;;25.60;17.35;;;5.60;99.90;;;;;;5034146;28;20278;-78
2021/12/05 14:22:06;;;;;;;26.98;18.75;;;5.60;99.90;;;;;;5034701;28;20228;-78
2021/12/05 14:24:37;;;;;;;24.35;18.80;;;5.50;99.90;;;;;;5034204;28;20240;-78
2021/12/05 14:27:07;;;;;;;23.83;17.45;;;5.60;99.90;;;;;;5035008;28;20645;-78
2021/12/05 14:29:56;;;;;;;29.10;19.05;;;5.50;99.90;;;;;;5030975;28;20295;-78
2021/12/05 15:36:09;;;;;;;23.25;17.10;;;5.50;99.90;;;;;;6180184;22;20169;-71
2021/12/05 15:38:36;;;;;;;23.45;17.35;;;5.40;99.90;;;;;;5052450;28;20697;-67
2021/12/05 15:41:06;;;;;;;22.67;18.90;;;5.40;99.90;;;;;;5056769;28;20209;-68
2021/12/05 15:43:36;;;;;;;22.98;16.13;;;5.30;99.90;;;;;;5063920;28;20229;-69
2021/12/05 15:46:04;;;;;;;26.27;19.23;;;5.30;99.90;;;;;;5070396;28;20206;-71
2021/12/05 15:48:33;;;;;;;26.20;16.75;;;5.30;99.90;;;;;;5072156;28;20203;-67
2021/12/05 15:51:02;;;;;;;19.98;13.98;;;5.30;99.90;;;;;;5074064;28;20207;-69
2021/12/05 15:53:32;;;;;;;24.77;16.83;;;5.20;99.90;;;;;;5073533;28;20592;-66
2021/12/05 15:56:03;;;;;;;21.20;16.65;;;5.10;99.90;;;;;;5072540;28;20209;-68
2021/12/05 15:58:32;;;;;;;25.48;17.02;;;5.10;99.90;;;;;;5072256;28;20199;-69
2021/12/05 16:01:02;;;;;;;21.65;15.55;;;5.10;99.90;;;;;;5075130;28;20203;-68
2021/12/05 16:03:40;;;;;;;25.20;14.95;;;5.00;99.90;;;;;;5072463;28;20229;-67
2021/12/05 16:06:07;;;;;;;22.65;14.60;;;5.00;99.90;;;;;;5073443;28;20194;-68
2021/12/05 16:08:35;;;;;;;19.80;15.10;;;4.90;99.90;;;;;;5070894;28;20207;-68
2021/12/05 16:11:10;;;;;;;25.55;16.52;;;4.90;99.90;;;;;;5070793;28;20206;-69
2021/12/05 16:13:41;;;;;;;23.05;15.57;;;4.80;99.90;;;;;;5070568;28;20218;-70
2021/12/05 16:16:11;;;;;;;22.83;15.85;;;4.80;99.90;;;;;;5073355;28;20227;-69
2021/12/05 16:18:40;;;;;;;23.52;15.68;;;4.90;99.90;;;;;;5072828;28;20202;-68
2021/12/05 16:21:16;;;;;;;18.15;14.93;;;4.90;99.90;;;;;;5071765;28;20309;-68
2021/12/05 16:23:44;;;;;;;23.55;15.65;;;5.00;99.90;;;;;;5069177;28;20631;-69
2021/12/05 16:26:14;;;;;;;17.08;14.00;;;5.00;99.90;;;;;;5074033;28;20554;-67
2021/12/05 16:28:43;;;;;;;18.65;13.32;;;5.00;99.90;;;;;;5066606;28;20203;-69
2021/12/05 16:31:17;;;;;;;15.55;12.70;;;5.10;99.90;;;;;;5062946;28;20731;-65
2021/12/05 16:33:46;;;;;;;16.88;13.48;;;5.00;99.90;;;;;;5077446;28;20250;-71
2021/12/05 16:36:14;;;;;;;18.52;13.20;;;4.90;99.90;;;;;;5074466;28;20203;-65
2021/12/05 16:38:45;;;;;;;18.02;15.40;;;4.90;99.90;;;;;;5074073;28;20690;-67
2021/12/05 16:41:26;;;;;;;17.73;14.57;;;5.00;99.90;;;;;;5074683;28;20210;-68
2021/12/05 16:43:59;;;;;;;15.88;12.90;;;5.00;99.90;;;;;;5076118;28;20214;-66
2021/12/05 16:46:30;;;;;;;15.55;12.05;;;4.90;99.90;;;;;;5074703;28;20293;-68
2021/12/05 16:49:00;;;;;;;16.52;12.30;;;4.90;99.90;;;;;;5076920;28;20206;-68
2021/12/05 16:51:31;;;;;;;14.88;11.82;;;4.80;99.90;;;;;;5075340;28;20207;-65
2021/12/05 16:54:04;;;;;;;13.57;11.57;;;4.80;99.90;;;;;;5076036;28;20239;-69
2021/12/05 16:56:49;;;;;;;19.20;13.15;;;4.70;99.90;;;;;;5076908;28;20206;-66
2021/12/05 16:59:21;;;;;;;21.42;14.30;;;4.70;99.90;;;;;;5079324;28;20712;-68
2021/12/05 17:02:15;;;;;;;17.50;13.23;;;4.70;99.90;;;;;;5075910;28;20218;-67
2021/12/05 17:04:49;;;;;;;19.77;13.90;;;4.70;99.90;;;;;;5070618;28;20199;-69
2021/12/05 17:07:36;;;;;;;19.08;13.75;;;4.60;99.90;;;;;;5080824;28;20737;-67
2021/12/05 17:10:07;;;;;;;18.63;14.95;;;4.60;99.90;;;;;;5075444;28;20219;-67
2021/12/05 17:12:36;;;;;;;18.95;14.15;;;4.50;99.90;;;;;;5070057;28;21621;-67
2021/12/05 17:15:15;;;;;;;23.40;15.98;;;4.30;99.90;;;;;;5071768;28;20640;-66
2021/12/05 17:17:44;;;;;;;25.60;17.02;;;4.40;99.90;;;;;;5077039;28;20205;-67
2021/12/05 17:20:25;;;;;;;22.70;15.70;;;4.40;99.90;;;;;;5073689;28;20199;-66
2021/12/05 17:22:58;;;;;;;26.80;15.63;;;4.50;99.90;;;;;;5072829;28;20699;-66
2021/12/05 17:25:32;;;;;;;17.85;13.75;;;4.40;99.90;;;;;;5073586;28;20856;-68
2021/12/05 17:28:00;;;;;;;18.67;14.23;;;4.50;99.90;;;;;;5069562;28;20209;-66
2021/12/05 17:30:27;;;;;;;24.33;15.00;;;4.50;99.90;;;;;;5090030;28;20207;-68
2021/12/05 17:32:54;;;;;;;21.02;15.35;;;4.50;99.90;;;;;;5086769;28;20439;-66
2021/12/05 17:35:21;;;;;;;22.42;14.95;;;4.60;99.90;;;;;;5091088;28;20240;-65
2021/12/05 17:37:50;;;;;;;25.25;15.73;;;4.50;99.90;;;;;;5086034;28;20222;-65
2021/12/05 17:40:17;;;;;;;22.38;14.75;;;4.60;99.90;;;;;;5084674;28;20206;-68
2021/12/05 17:42:46;;;;;;;21.67;14.35;;;4.60;99.90;;;;;;5084327;28;20227;-68
2021/12/05 17:45:14;;;;;;;22.27;15.20;;;4.60;99.90;;;;;;5081289;28;20199;-67
2021/12/05 17:47:41;;;;;;;22.90;15.80;;;4.50;99.90;;;;;;5080534;28;20209;-69
2021/12/05 17:50:11;;;;;;;28.08;18.80;;;4.60;99.90;;;;;;5080850;28;20221;-67
2021/12/05 17:52:39;;;;;;;25.88;17.85;;;4.50;99.90;;;;;;5074523;28;20245;-68
2021/12/05 17:55:15;;;;;;;24.02;17.10;;;4.50;99.90;;;;;;5075361;28;20207;-66
2021/12/05 17:57:47;;;;;;;24.75;17.45;;;4.50;99.90;;;;;;5073001;28;20675;-69
2021/12/05 18:00:33;;;;;;;21.80;15.48;;;4.50;99.90;;;;;;5070554;28;20191;-64
2021/12/05 18:03:01;;;;;;;28.10;18.73;;;4.50;99.90;;;;;;5071160;28;20226;-67
2021/12/05 18:05:31;;;;;;;25.33;18.35;;;4.50;99.90;;;;;;5072512;28;20209;-68
2021/12/05 18:08:00;;;;;;;24.65;17.17;;;4.50;99.90;;;;;;5071039;28;20211;-66
2021/12/05 18:10:35;;;;;;;25.08;17.20;;;4.50;99.90;;;;;;5073061;28;20282;-66
2021/12/05 18:13:03;;;;;;;25.05;17.23;;;4.40;99.90;;;;;;5066730;28;20407;-66
2021/12/05 18:15:36;;;;;;;21.55;16.85;;;4.40;99.90;;;;;;5074532;28;20203;-68
2021/12/05 18:18:06;;;;;;;25.40;17.27;;;4.30;99.90;;;;;;5071468;28;20203;-68
2021/12/05 18:20:35;;;;;;;28.92;19.15;;;4.30;99.90;;;;;;5072880;28;20233;-68
2021/12/05 18:23:05;;;;;;;28.67;20.17;;;4.40;99.90;;;;;;5073148;28;20237;-68
2021/12/05 18:25:33;;;;;;;25.38;18.40;;;4.50;99.90;;;;;;5073079;28;20195;-67
2021/12/05 18:28:00;;;;;;;27.90;18.70;;;4.40;99.90;;;;;;5073376;28;20207;-66
2021/12/05 18:30:29;;;;;;;28.95;19.65;;;4.50;99.90;;;;;;5072720;28;20222;-68
2021/12/05 18:33:00;;;;;;;25.77;18.48;;;4.50;99.90;;;;;;5071844;28;20219;-68
2021/12/05 21:14:27;;;;;;;32.03;19.02;;;3.60;99.90;;;;;;5082574;28;20264;-82
2021/12/05 21:17:03;;;;;;;26.02;19.23;;;3.70;99.90;;;;;;5083844;28;20650;-84
2021/12/05 21:19:30;;;;;;;29.08;19.80;;;3.70;99.90;;;;;;5077694;28;20221;-81
2021/12/05 21:21:58;;;;;;;29.92;20.10;;;3.60;99.90;;;;;;5080541;28;20258;-85
2021/12/05 21:24:25;;;;;;;30.02;19.58;;;3.70;99.90;;;;;;5085118;28;20252;-86
2021/12/05 21:26:52;;;;;;;31.92;19.58;;;3.70;99.90;;;;;;5085577;28;20262;-88
2021/12/05 21:29:20;;;;;;;28.42;19.75;;;3.70;99.90;;;;;;5082764;28;20210;-87
2021/12/05 21:31:49;;;;;;;32.88;21.25;;;3.70;99.90;;;;;;5082853;28;20234;-88
2021/12/05 21:34:16;;;;;;;27.30;18.42;;;3.80;99.90;;;;;;5089544;28;20297;-88
2021/12/05 21:36:43;;;;;;;29.08;18.38;;;3.80;99.90;;;;;;5083063;28;20206;-87
2021/12/05 21:39:10;;;;;;;28.80;19.10;;;3.90;99.90;;;;;;5089429;28;20206;-87